createdAt,value
2023-03-15T00:01:16.923Z,99.90
2023-03-15T00:03:48.270Z,99.90
2023-03-15T00:06:17.093Z,99.90
2023-03-15T00:08:47.419Z,99.90
2023-03-15T00:11:16.313Z,99.90
2023-03-15T00:13:48.840Z,99.90
2023-03-15T00:16:18.312Z,99.90
2023-03-15T00:18:48.690Z,99.90
2023-03-15T00:21:16.972Z,99.90
2023-03-15T00:23:45.179Z,99.90
2023-03-15T00:26:13.793Z,99.90
2023-03-15T00:28:44.269Z,99.90
2023-03-15T00:31:19.235Z,99.90
2023-03-15T00:33:53.748Z,99.90
2023-03-15T00:36:25.179Z,99.90
2023-03-15T00:38:57.453Z,99.90
2023-03-15T00:41:25.997Z,99.90
2023-03-15T00:43:56.534Z,99.90
2023-03-15T00:46:26.052Z,99.90
2023-03-15T00:48:54.365Z,99.90
2023-03-15T00:51:25.403Z,99.90
2023-03-15T00:53:54.489Z,99.90
2023-03-15T00:56:24.672Z,99.90
2023-03-15T00:58:54.848Z,99.90
2023-03-15T01:01:29.180Z,99.90
2023-03-15T01:03:59.621Z,99.90
2023-03-15T01:06:29.829Z,99.90
2023-03-15T01:09:01.738Z,99.90
2023-03-15T01:11:29.932Z,99.90
2023-03-15T01:14:00.142Z,99.90
2023-03-15T01:16:33.979Z,99.90
2023-03-15T01:19:06.706Z,99.90
2023-03-15T01:21:37.306Z,99.90
2023-03-15T01:24:05.637Z,99.90
2023-03-15T01:26:35.779Z,99.90
2023-03-15T01:29:06.155Z,99.90
2023-03-15T01:31:35.701Z,99.90
2023-03-15T01:34:04.230Z,99.90
2023-03-15T01:36:33.825Z,99.90
2023-03-15T01:39:04.069Z,99.90
2023-03-15T01:41:40.560Z,99.90
2023-03-15T01:44:14.859Z,99.90
2023-03-15T01:46:44.735Z,99.90
2023-03-15T01:49:26.557Z,99.90
2023-03-15T01:51:59.029Z,99.90
2023-03-15T01:54:38.715Z,99.90
2023-03-15T01:57:11.820Z,99.90
2023-03-15T01:59:46.686Z,99.90
2023-03-15T02:02:18.751Z,99.90
2023-03-15T02:04:53.073Z,99.90
2023-03-15T02:07:24.325Z,99.90
2023-03-15T02:10:01.185Z,99.90
2023-03-15T02:12:33.491Z,99.90
2023-03-15T02:15:03.930Z,99.90
2023-03-15T02:17:38.095Z,99.90
2023-03-15T02:20:17.494Z,99.90
2023-03-15T02:22:53.867Z,99.90
2023-03-15T02:25:31.593Z,99.90
2023-03-15T02:28:02.160Z,99.90
2023-03-15T02:30:30.499Z,99.90
2023-03-15T02:32:59.268Z,99.90
2023-03-15T02:35:30.234Z,99.90
2023-03-15T02:38:02.720Z,99.90
2023-03-15T02:40:32.326Z,99.90
2023-03-15T02:43:06.588Z,99.90
2023-03-15T02:45:36.413Z,99.90
2023-03-15T02:48:08.577Z,99.90
2023-03-15T02:50:39.088Z,99.90
2023-03-15T02:53:07.982Z,99.90
2023-03-15T02:55:37.241Z,99.90
2023-03-15T02:58:07.316Z,99.90
2023-03-15T03:00:35.422Z,99.90
2023-03-15T03:03:03.517Z,99.90
2023-03-15T03:05:33.530Z,99.90
2023-03-15T03:08:02.758Z,99.90
2023-03-15T03:10:33.571Z,99.90
2023-03-15T03:13:02.488Z,99.90
2023-03-15T03:15:37.987Z,99.90
2023-03-15T03:18:08.318Z,99.90
2023-03-15T03:20:36.360Z,99.90
2023-03-15T03:23:06.237Z,99.90
2023-03-15T03:25:36.738Z,99.90
2023-03-15T03:28:07.466Z,99.90
2023-03-15T03:30:37.844Z,99.90
2023-03-15T03:33:06.145Z,99.90
2023-03-15T03:35:36.570Z,99.90
2023-03-15T03:38:07.706Z,99.90
2023-03-15T03:40:39.631Z,99.90
2023-03-15T03:43:11.060Z,99.90
2023-03-15T03:45:43.154Z,99.90
2023-03-15T03:48:12.357Z,99.90
2023-03-15T03:50:40.879Z,99.90
2023-03-15T03:53:08.979Z,99.90
2023-03-15T03:55:39.674Z,99.90
2023-03-15T03:58:10.437Z,99.90
2023-03-15T04:00:54.265Z,99.90
2023-03-15T04:03:27.182Z,99.90
2023-03-15T04:06:02.086Z,99.90
2023-03-15T04:08:33.180Z,99.90
2023-03-15T04:11:05.001Z,99.90
2023-03-15T04:13:36.677Z,99.90
2023-03-15T04:16:09.416Z,99.90
2023-03-15T04:18:51.451Z,99.90
2023-03-15T04:21:23.126Z,99.90
2023-03-15T04:23:55.084Z,99.90
2023-03-15T04:26:51.721Z,99.90
2023-03-15T04:29:46.230Z,99.90
2023-03-15T04:32:22.686Z,99.90
2023-03-15T04:35:27.075Z,99.90
2023-03-15T04:38:03.959Z,99.90
2023-03-15T04:40:47.034Z,99.90
2023-03-15T04:43:28.186Z,99.90
2023-03-15T04:46:19.153Z,99.90
2023-03-15T04:49:07.201Z,99.90
2023-03-15T04:51:50.505Z,99.90
2023-03-15T04:54:28.353Z,99.90
2023-03-15T04:57:27.008Z,99.90
2023-03-15T05:00:14.420Z,99.90
2023-03-15T05:03:07.192Z,99.90
2023-03-15T05:05:55.378Z,99.90
2023-03-15T05:08:39.271Z,99.90
2023-03-15T05:11:39.425Z,99.90
2023-03-15T05:14:26.351Z,99.90
2023-03-15T05:17:33.748Z,99.90
2023-03-15T05:20:20.728Z,99.90
2023-03-15T05:23:08.769Z,99.90
2023-03-15T05:26:06.327Z,99.90
2023-03-15T05:28:49.579Z,99.90
2023-03-15T05:31:37.222Z,99.90
2023-03-15T05:34:18.144Z,99.90
2023-03-15T05:37:00.648Z,99.90
2023-03-15T05:39:59.830Z,99.90
2023-03-15T05:42:46.356Z,99.90
2023-03-15T05:45:27.047Z,99.90
2023-03-15T05:48:17.680Z,99.90
2023-03-15T05:50:58.667Z,99.90
2023-03-15T05:53:55.841Z,99.90
2023-03-15T05:56:36.244Z,99.90
2023-03-15T05:59:16.492Z,99.90
2023-03-15T06:02:12.200Z,99.90
2023-03-15T06:04:52.364Z,99.90
2023-03-15T06:07:24.544Z,99.90
2023-03-15T06:09:53.105Z,99.90
2023-03-15T06:12:25.731Z,99.90
2023-03-15T06:14:54.257Z,99.90
2023-03-15T06:17:22.705Z,99.90
2023-03-15T06:19:50.857Z,99.90
2023-03-15T06:22:20.640Z,99.90
2023-03-15T06:24:54.971Z,99.90
2023-03-15T06:27:26.163Z,99.90
2023-03-15T06:29:58.430Z,99.90
2023-03-15T06:32:30.418Z,99.90
2023-03-15T06:35:01.904Z,99.90
2023-03-15T06:37:35.365Z,99.90
2023-03-15T06:40:07.223Z,99.90
2023-03-15T06:42:39.903Z,99.90
2023-03-15T06:45:11.094Z,99.90
2023-03-15T06:47:39.459Z,99.90
2023-03-15T06:50:11.802Z,99.90
2023-03-15T06:52:40.277Z,99.90
2023-03-15T06:55:10.319Z,99.90
2023-03-15T06:57:40.130Z,99.90
2023-03-15T07:00:12.503Z,99.90
2023-03-15T07:02:40.875Z,99.90
2023-03-15T07:05:11.120Z,99.90
2023-03-15T07:07:39.369Z,99.90
2023-03-15T07:10:08.140Z,99.90
2023-03-15T07:12:36.319Z,99.90
2023-03-15T07:15:09.056Z,99.90
2023-03-15T07:17:39.623Z,99.90
2023-03-15T07:20:08.347Z,99.90
2023-03-15T07:22:39.121Z,99.90
2023-03-15T07:25:08.303Z,99.90
2023-03-15T07:27:36.401Z,99.90
2023-03-15T07:30:04.786Z,99.90
2023-03-15T07:32:34.422Z,99.90
2023-03-15T07:35:02.655Z,99.90
2023-03-15T07:37:33.269Z,99.90
2023-03-15T07:40:09.869Z,99.90
2023-03-15T07:42:38.472Z,99.90
2023-03-15T07:45:09.179Z,99.90
2023-03-15T07:47:38.714Z,99.90
2023-03-15T07:50:08.416Z,99.90
2023-03-15T07:52:36.518Z,99.90
2023-03-15T07:55:08.315Z,99.90
2023-03-15T07:57:38.814Z,99.90
2023-03-15T08:00:09.063Z,99.90
2023-03-15T08:02:41.868Z,99.90
2023-03-15T08:05:10.648Z,99.90
2023-03-15T08:07:38.830Z,99.90
2023-03-15T08:10:08.047Z,99.90
2023-03-15T08:12:36.197Z,99.90
2023-03-15T08:15:04.423Z,99.90
2023-03-15T08:17:34.872Z,99.90
2023-03-15T08:20:10.114Z,99.90
2023-03-15T08:22:38.557Z,99.90
2023-03-15T08:25:09.859Z,99.90
2023-03-15T08:27:38.116Z,99.90
2023-03-15T08:30:07.113Z,99.90
2023-03-15T08:32:35.361Z,99.90
2023-03-15T08:35:03.548Z,99.90
2023-03-15T08:37:33.018Z,99.90
2023-03-15T08:40:06.740Z,99.90
2023-03-15T08:42:37.789Z,99.90
2023-03-15T08:45:09.850Z,99.90
2023-03-15T08:47:40.270Z,99.90
2023-03-15T08:50:11.640Z,99.90
2023-03-15T08:52:41.893Z,99.90
2023-03-15T08:55:14.347Z,99.90
2023-03-15T08:57:43.211Z,99.90
2023-03-15T09:00:17.965Z,99.90
2023-03-15T09:02:49.801Z,99.90
2023-03-15T09:05:18.689Z,99.90
2023-03-15T09:07:52.975Z,99.90
2023-03-15T09:10:22.103Z,99.90
2023-03-15T09:12:53.558Z,99.90
2023-03-15T09:15:21.995Z,99.90
2023-03-15T09:17:51.963Z,99.90
2023-03-15T09:20:22.882Z,99.90
2023-03-15T09:22:56.451Z,99.90
2023-03-15T09:25:27.663Z,99.90
2023-03-15T09:27:57.843Z,99.90
2023-03-15T09:30:26.754Z,99.90
2023-03-15T09:32:57.412Z,99.90
2023-03-15T09:35:25.767Z,99.90
2023-03-15T09:37:55.530Z,99.90
2023-03-15T09:40:27.456Z,99.90
2023-03-15T09:43:14.984Z,99.90
2023-03-15T09:45:55.813Z,99.90
2023-03-15T09:48:32.046Z,99.90
2023-03-15T09:51:07.386Z,99.90
2023-03-15T09:53:45.910Z,99.90
2023-03-15T09:56:23.824Z,99.90
2023-03-15T09:58:59.396Z,99.90
2023-03-15T10:01:32.052Z,99.90
2023-03-15T10:04:04.200Z,99.90
2023-03-15T10:06:36.522Z,99.90
2023-03-15T10:09:14.899Z,99.90
2023-03-15T10:11:50.276Z,99.90
2023-03-15T10:14:28.882Z,99.90
2023-03-15T10:16:57.044Z,99.90
2023-03-15T10:19:31.778Z,99.90
2023-03-15T10:22:05.510Z,99.90
2023-03-15T10:24:41.975Z,99.90
2023-03-15T10:27:19.892Z,99.90
2023-03-15T10:29:49.468Z,99.90
2023-03-15T10:32:22.510Z,99.90
2023-03-15T10:34:53.398Z,99.90
2023-03-15T10:37:24.742Z,99.90
2023-03-15T10:39:59.673Z,99.90
2023-03-15T10:42:35.293Z,99.90
2023-03-15T10:45:19.789Z,99.90
2023-03-15T10:47:57.688Z,99.90
2023-03-15T10:50:33.668Z,99.90
2023-03-15T10:53:10.425Z,98.70
2023-03-15T10:55:45.276Z,99.90
2023-03-15T10:58:27.518Z,98.10
2023-03-15T11:01:01.788Z,96.20
2023-03-15T11:03:31.267Z,96.90
2023-03-15T11:06:00.997Z,97.30
2023-03-15T11:08:39.362Z,92.60
2023-03-15T11:11:09.933Z,94.20
2023-03-15T11:13:41.565Z,93.20
2023-03-15T11:16:21.772Z,90.40
2023-03-15T11:18:56.901Z,92.40
2023-03-15T11:21:33.593Z,89.30
2023-03-15T11:24:03.461Z,90.10
2023-03-15T11:26:37.127Z,92.00
2023-03-15T11:29:15.879Z,91.00
2023-03-15T11:31:44.178Z,93.00
2023-03-15T11:34:17.447Z,88.40
2023-03-15T11:37:02.099Z,87.90
2023-03-15T11:39:40.487Z,87.00
2023-03-15T11:42:18.901Z,87.70
2023-03-15T11:44:49.216Z,87.70
2023-03-15T11:47:27.292Z,83.90
2023-03-15T11:49:56.711Z,84.30
2023-03-15T11:52:29.403Z,82.40
2023-03-15T11:55:02.035Z,85.10
2023-03-15T11:57:47.156Z,86.80
2023-03-15T12:00:47.120Z,84.90
2023-03-15T12:03:40.267Z,82.40
2023-03-15T12:06:36.722Z,83.50
2023-03-15T12:09:41.826Z,82.30
2023-03-15T12:12:36.362Z,78.40
2023-03-15T12:15:16.245Z,81.40
2023-03-15T12:17:50.869Z,78.10
2023-03-15T12:20:28.739Z,77.50
2023-03-15T12:23:17.667Z,75.60
2023-03-15T12:25:55.098Z,75.60
2023-03-15T12:28:28.830Z,77.10
2023-03-15T12:31:02.880Z,78.20
2023-03-15T12:33:44.428Z,78.60
2023-03-15T12:36:20.638Z,78.50
2023-03-15T12:39:00.731Z,79.10
2023-03-15T12:41:38.541Z,76.10
2023-03-15T12:44:41.111Z,72.20
2023-03-15T12:47:11.545Z,72.90
2023-03-15T12:49:44.280Z,72.70
2023-03-15T12:52:33.781Z,72.80
2023-03-15T12:55:08.479Z,74.20
2023-03-15T12:57:46.079Z,75.60
2023-03-15T13:00:17.051Z,72.90
2023-03-15T13:02:49.627Z,72.00
2023-03-15T13:05:21.681Z,71.40
2023-03-15T13:08:05.572Z,70.30
2023-03-15T13:11:12.459Z,72.90
2023-03-15T13:14:02.292Z,73.60
2023-03-15T13:16:37.395Z,74.20
2023-03-15T13:19:17.836Z,74.00
2023-03-15T13:22:01.686Z,70.30
2023-03-15T13:24:42.866Z,71.40
2023-03-15T13:27:19.398Z,71.30
2023-03-15T13:29:49.913Z,73.50
2023-03-15T13:32:22.885Z,71.80
2023-03-15T13:34:52.606Z,70.40
2023-03-15T13:37:25.667Z,70.60
2023-03-15T13:39:58.474Z,71.00
2023-03-15T13:42:27.772Z,68.60
2023-03-15T13:45:13.049Z,69.60
2023-03-15T13:47:42.744Z,69.60
2023-03-15T13:50:18.815Z,70.60
2023-03-15T13:52:49.900Z,69.30
2023-03-15T13:55:22.688Z,69.10
2023-03-15T13:57:55.032Z,70.30
2023-03-15T14:00:26.877Z,72.00
2023-03-15T14:02:58.928Z,69.20
2023-03-15T14:05:31.105Z,70.40
2023-03-15T14:08:03.174Z,66.60
2023-03-15T14:10:35.187Z,69.00
2023-03-15T14:13:22.266Z,69.90
2023-03-15T14:15:50.820Z,67.90
2023-03-15T14:18:24.832Z,70.20
2023-03-15T14:21:02.753Z,68.70
2023-03-15T14:23:33.813Z,68.50
2023-03-15T14:26:08.114Z,66.50
2023-03-15T14:28:36.745Z,67.50
2023-03-15T14:31:04.951Z,66.60
2023-03-15T14:33:35.376Z,67.50
2023-03-15T14:36:10.269Z,67.10
2023-03-15T14:38:40.803Z,66.70
2023-03-15T14:41:25.267Z,68.80
2023-03-15T14:43:54.160Z,69.10
2023-03-15T14:46:22.432Z,67.80
2023-03-15T14:48:53.296Z,68.40
2023-03-15T14:51:25.807Z,66.70
2023-03-15T14:53:57.412Z,65.40
2023-03-15T14:56:28.448Z,64.60
2023-03-15T14:58:56.601Z,65.30
2023-03-15T15:01:28.990Z,65.60
2023-03-15T15:04:00.346Z,62.80
2023-03-15T15:06:32.437Z,64.80
2023-03-15T15:09:01.589Z,63.50
2023-03-15T15:11:29.852Z,64.70
2023-03-15T15:13:58.136Z,63.80
2023-03-15T15:16:26.608Z,63.90
2023-03-15T15:18:57.200Z,65.20
2023-03-15T15:21:28.228Z,63.10
2023-03-15T15:23:59.457Z,62.20
2023-03-15T15:26:29.431Z,62.10
2023-03-15T15:28:57.873Z,60.80
2023-03-15T15:31:27.346Z,62.30
2023-03-15T15:33:58.305Z,62.10
2023-03-15T15:36:32.320Z,61.50
2023-03-15T15:39:07.185Z,61.00
2023-03-15T15:41:35.721Z,60.90
2023-03-15T15:44:04.186Z,64.80
2023-03-15T15:46:32.576Z,63.10
2023-03-15T15:49:00.727Z,62.20
2023-03-15T15:51:31.680Z,63.80
2023-03-15T15:54:05.336Z,63.00
2023-03-15T15:56:35.729Z,62.40
2023-03-15T15:59:07.150Z,60.60
2023-03-15T16:01:36.547Z,61.20
2023-03-15T16:04:07.932Z,59.40
2023-03-15T16:06:38.454Z,59.10
2023-03-15T16:09:09.617Z,60.30
2023-03-15T16:11:37.795Z,63.00
2023-03-15T16:14:08.235Z,63.00
2023-03-15T16:16:36.422Z,62.20
2023-03-15T16:19:06.877Z,64.70
2023-03-15T16:21:39.932Z,62.00
2023-03-15T16:24:15.502Z,61.70
2023-03-15T16:26:44.277Z,62.80
2023-03-15T16:29:19.115Z,63.10
2023-03-15T16:31:47.844Z,62.10
2023-03-15T16:34:18.179Z,61.80
2023-03-15T16:36:49.790Z,62.00
2023-03-15T16:39:19.575Z,62.40
2023-03-15T16:41:52.127Z,63.80
2023-03-15T16:44:22.020Z,64.20
2023-03-15T16:46:52.266Z,64.30
2023-03-15T16:49:21.005Z,61.40
2023-03-15T16:51:53.930Z,62.60
2023-03-15T16:54:40.269Z,63.60
2023-03-15T16:57:17.282Z,64.20
2023-03-15T16:59:45.517Z,64.00
2023-03-15T17:02:19.898Z,64.60
2023-03-15T17:04:48.593Z,65.40
2023-03-15T17:07:18.026Z,66.50
2023-03-15T17:09:49.083Z,66.20
2023-03-15T17:12:21.998Z,66.70
2023-03-15T17:14:50.221Z,67.00
2023-03-15T17:17:21.010Z,67.60
2023-03-15T17:19:49.276Z,68.20
2023-03-15T17:22:18.607Z,68.60
2023-03-15T17:24:48.681Z,69.40
2023-03-15T17:27:22.828Z,70.00
2023-03-15T17:29:51.333Z,70.50
2023-03-15T17:32:21.860Z,70.00
2023-03-15T17:34:52.802Z,71.50
2023-03-15T17:37:21.108Z,71.90
2023-03-15T17:39:50.823Z,71.60
2023-03-15T17:42:21.589Z,72.10
2023-03-15T17:44:49.768Z,72.50
2023-03-15T17:47:20.358Z,73.10
2023-03-15T17:49:51.330Z,74.00
2023-03-15T17:52:20.711Z,74.20
2023-03-15T17:54:50.268Z,74.30
2023-03-15T17:57:18.392Z,75.30
2023-03-15T17:59:48.868Z,76.40
2023-03-15T18:02:17.364Z,77.70
2023-03-15T18:04:46.220Z,78.60
2023-03-15T18:07:14.356Z,79.20
2023-03-15T18:09:42.473Z,80.10
2023-03-15T18:12:15.200Z,80.70
2023-03-15T18:14:43.701Z,81.50
2023-03-15T18:17:12.288Z,83.10
2023-03-15T18:19:40.490Z,83.00
2023-03-15T18:22:17.740Z,83.60
2023-03-15T18:24:47.148Z,85.20
2023-03-15T18:27:19.910Z,87.00
2023-03-15T18:29:50.361Z,88.40
2023-03-15T18:32:18.449Z,90.00
2023-03-15T18:34:47.214Z,90.10
2023-03-15T18:37:17.685Z,90.50
2023-03-15T18:39:45.840Z,91.20
2023-03-15T18:42:16.358Z,91.90
2023-03-15T18:44:46.057Z,92.30
2023-03-15T18:47:14.214Z,93.00
2023-03-15T18:49:42.360Z,93.80
2023-03-15T18:52:16.032Z,94.60
2023-03-15T18:54:46.542Z,95.20
2023-03-15T18:57:14.725Z,95.80
2023-03-15T18:59:46.550Z,96.60
2023-03-15T19:02:14.739Z,97.40
2023-03-15T19:04:42.868Z,97.90
2023-03-15T19:07:10.994Z,98.30
2023-03-15T19:09:41.325Z,98.70
2023-03-15T19:12:09.733Z,99.00
2023-03-15T19:14:38.199Z,99.20
2023-03-15T19:17:10.234Z,99.50
2023-03-15T19:19:38.496Z,99.80
2023-03-15T19:22:06.803Z,99.90
2023-03-15T19:24:37.554Z,99.90
2023-03-15T19:27:08.750Z,99.90
2023-03-15T19:29:37.074Z,99.90
2023-03-15T19:32:06.430Z,99.90
2023-03-15T19:34:36.004Z,99.90
2023-03-15T19:37:04.466Z,99.90
2023-03-15T19:39:32.906Z,99.90
2023-03-15T19:42:01.263Z,99.90
2023-03-15T19:44:30.701Z,99.90
2023-03-15T19:46:58.940Z,99.90
2023-03-15T19:49:27.219Z,99.90
2023-03-15T19:51:57.037Z,99.90
2023-03-15T19:54:25.516Z,99.90
2023-03-15T19:56:54.592Z,99.90
2023-03-15T19:59:22.874Z,99.90
2023-03-15T20:01:51.229Z,99.90
2023-03-15T20:04:19.591Z,99.90
2023-03-15T20:06:47.963Z,99.90
2023-03-15T20:09:18.278Z,99.90
2023-03-15T20:11:46.713Z,99.90
2023-03-15T20:14:15.474Z,99.90
2023-03-15T20:16:43.694Z,99.90
2023-03-15T20:19:11.921Z,99.90
2023-03-15T20:21:40.106Z,99.90
2023-03-15T20:24:09.067Z,99.90
2023-03-15T20:26:38.764Z,99.90
2023-03-15T20:29:08.089Z,99.90
2023-03-15T20:31:36.285Z,99.90
2023-03-15T20:34:05.706Z,99.90
2023-03-15T20:36:34.933Z,99.90
2023-03-15T20:39:05.860Z,99.90
2023-03-15T20:41:34.134Z,99.90
2023-03-15T20:44:05.960Z,99.90
2023-03-15T20:46:34.580Z,99.90
2023-03-15T20:49:03.148Z,99.90
2023-03-15T20:51:31.439Z,99.90
2023-03-15T20:53:59.668Z,99.90
2023-03-15T20:56:28.021Z,99.90
2023-03-15T20:58:56.276Z,99.90
2023-03-15T21:01:25.887Z,99.90
2023-03-15T21:03:56.069Z,99.90
2023-03-15T21:06:24.489Z,99.90
2023-03-15T21:08:52.678Z,99.90
2023-03-15T21:11:20.885Z,99.90
2023-03-15T21:13:49.135Z,99.90
2023-03-15T21:16:19.479Z,99.90
2023-03-15T21:18:51.973Z,99.90
2023-03-15T21:21:20.790Z,99.90
2023-03-15T21:23:49.263Z,99.90
2023-03-15T21:26:22.396Z,99.90
2023-03-15T21:28:50.674Z,99.90
2023-03-15T21:31:19.060Z,99.90
2023-03-15T21:33:50.682Z,99.90
2023-03-15T21:36:19.184Z,99.90
2023-03-15T21:38:47.339Z,99.90
2023-03-15T21:41:15.883Z,99.90
2023-03-15T21:43:44.433Z,99.90
2023-03-15T21:46:15.091Z,99.90
2023-03-15T21:48:43.683Z,99.90
2023-03-15T21:51:14.657Z,99.90
2023-03-15T21:53:43.492Z,99.90
2023-03-15T21:56:13.863Z,99.90
2023-03-15T21:58:42.037Z,99.90
2023-03-15T22:01:10.229Z,99.90
2023-03-15T22:03:39.334Z,99.90
2023-03-15T22:06:08.410Z,99.90
2023-03-15T22:08:38.036Z,99.90
2023-03-15T22:11:06.562Z,99.90
2023-03-15T22:13:34.896Z,99.90
2023-03-15T22:16:03.083Z,99.90
2023-03-15T22:18:32.068Z,99.90
2023-03-15T22:21:03.238Z,99.90
2023-03-15T22:23:33.434Z,99.90
2023-03-15T22:26:03.004Z,99.90
2023-03-15T22:28:31.181Z,99.90
2023-03-15T22:30:59.424Z,99.90
2023-03-15T22:33:27.599Z,99.90
2023-03-15T22:35:56.987Z,99.90
2023-03-15T22:38:28.177Z,99.90
2023-03-15T22:41:05.612Z,99.90
2023-03-15T22:43:33.895Z,99.90
2023-03-15T22:46:02.411Z,99.90
2023-03-15T22:48:30.606Z,99.90
2023-03-15T22:51:02.314Z,99.90
2023-03-15T22:53:33.374Z,99.90
2023-03-15T22:56:03.733Z,99.90
2023-03-15T22:58:31.909Z,99.90
2023-03-15T23:01:00.680Z,99.90
2023-03-15T23:03:29.455Z,99.90
2023-03-15T23:05:57.814Z,99.90
2023-03-15T23:08:25.959Z,99.90
2023-03-15T23:10:58.378Z,99.90
2023-03-15T23:13:27.911Z,99.90
2023-03-15T23:15:56.344Z,99.90
2023-03-15T23:18:24.574Z,99.90
2023-03-15T23:20:52.736Z,99.90
2023-03-15T23:23:20.891Z,99.90
2023-03-15T23:25:53.929Z,99.90
2023-03-15T23:28:24.378Z,99.90
2023-03-15T23:30:54.289Z,99.90
2023-03-15T23:33:23.091Z,99.90
2023-03-15T23:35:51.528Z,99.90
2023-03-15T23:38:22.981Z,99.90
2023-03-15T23:40:57.391Z,99.90
2023-03-15T23:43:28.282Z,99.90
2023-03-15T23:45:58.861Z,99.90
2023-03-15T23:48:27.613Z,99.90
2023-03-15T23:50:56.649Z,99.90
2023-03-15T23:53:26.254Z,99.90
2023-03-15T23:55:56.678Z,99.90
2023-03-15T23:58:25.380Z,99.90
